Time;durP1;ratioP1;P1;durP2;ratioP2;P2;SDS_P1;SDS_P2;PMS_P1;PMS_P2;Temp;Humidity;BMP_temperature;BMP_pressure;BME280_temperature;BME280_humidity;BME280_pressure;Samples;Min_cycle;Max_cycle;Signal;HPM_P1;HPM_P2
2021/04/04 00:00:28;;;;;;;32.70;17.17;;;;;;;13.73;34.37;100219.29;1765752;79;21121;-76
2021/04/04 00:02:56;;;;;;;27.48;14.73;;;;;;;13.71;34.61;100220.80;1774086;81;21189;-82
2021/04/04 00:05:24;;;;;;;31.05;15.70;;;;;;;13.71;34.64;100213.55;1804838;79;21166;-79
2021/04/04 00:07:52;;;;;;;31.37;16.80;;;;;;;13.73;34.57;100220.13;1806004;79;21223;-83
2021/04/04 00:10:20;;;;;;;29.48;17.27;;;;;;;13.77;34.34;100213.86;1805015;79;21636;-80
2021/04/04 00:12:47;;;;;;;;;;;;;;;13.78;34.29;100214.19;1807830;79;21221;-82
2021/04/04 00:15:15;;;;;;;34.27;18.00;;;;;;;13.80;34.21;100210.27;1805009;79;20276;-80
2021/04/04 00:17:42;;;;;;;32.33;17.65;;;;;;;13.81;34.31;100213.83;1805863;79;21091;-81
2021/04/04 00:20:11;;;;;;;;;;;;;;;13.81;34.33;100202.54;1809023;79;21494;-79
2021/04/04 00:22:38;;;;;;;;;;;;;;;13.82;34.24;100203.37;1809023;79;20220;-81
2021/04/04 00:25:07;;;;;;;29.42;15.32;;;;;;;13.82;34.18;100205.55;1806591;79;20213;-81
2021/04/04 00:27:34;;;;;;;30.25;15.93;;;;;;;13.83;34.15;100205.03;1806360;79;21193;-81
2021/04/04 00:30:11;;;;;;;;;;;;;;;13.83;34.22;100197.80;1808938;79;21090;-81
2021/04/04 00:32:54;;;;;;;31.85;16.97;;;;;;;13.89;34.15;100197.55;1782097;80;23313;-80
2021/04/04 00:35:21;;;;;;;;;;;;;;;13.84;34.11;100204.84;1762850;80;21155;-79
2021/04/04 00:37:52;;;;;;;25.90;16.73;;;;;;;13.84;34.18;100198.11;1753387;80;20523;-79
2021/04/04 00:40:25;;;;;;;36.95;18.10;;;;;;;13.84;34.23;100191.89;1709295;83;21653;-78
2021/04/04 00:42:52;;;;;;;35.75;17.80;;;;;;;13.84;34.30;100194.07;1753805;80;21201;-79
2021/04/04 00:45:29;;;;;;;34.20;17.75;;;;;;;13.85;34.28;100194.91;1754484;80;21202;-80
2021/04/04 00:47:56;;;;;;;34.40;17.98;;;;;;;13.85;34.29;100194.91;1757818;80;21710;-78
2021/04/04 00:50:30;;;;;;;34.50;20.25;;;;;;;13.86;34.46;100194.73;1761979;80;21186;-79
2021/04/04 00:52:58;;;;;;;35.05;19.52;;;;;;;13.85;34.50;100201.16;1752959;80;21672;-79
2021/04/04 00:55:25;;;;;;;32.30;19.00;;;;;;;13.85;34.61;100196.25;1765171;81;21060;-81
2021/04/04 00:57:53;;;;;;;32.30;19.00;;;;;;;13.83;34.66;100195.61;1763955;80;21193;-79
2021/04/04 01:00:26;;;;;;;30.52;20.02;;;;;;;13.84;34.80;100198.62;1714671;82;21154;-79
2021/04/04 01:02:55;;;;;;;36.35;19.35;;;;;;;13.80;34.57;100191.42;1763477;80;21070;-79
2021/04/04 01:05:32;;;;;;;34.33;20.48;;;;;;;13.80;34.66;100192.77;1763357;80;21242;-80
2021/04/04 01:07:58;;;;;;;33.85;20.17;;;;;;;13.79;34.59;100192.45;1763835;80;21573;-80
2021/04/04 01:10:31;;;;;;;35.73;20.10;;;;;;;13.76;34.72;100196.84;1760627;81;21542;-78
2021/04/04 01:13:22;;;;;;;37.23;19.87;;;;;;;13.74;34.74;100184.10;1766095;80;21162;-79
2021/04/04 01:16:10;;;;;;;36.53;20.65;;;;;;;13.74;34.81;100191.34;1726985;81;21155;-79
2021/04/04 01:18:48;;;;;;;34.03;19.98;;;;;;;13.73;34.89;100187.82;1761646;81;21184;-78
2021/04/04 01:21:31;;;;;;;39.65;20.57;;;;;;;13.74;34.77;100181.92;1757389;81;21177;-77
2021/04/04 01:24:39;;;;;;;34.30;19.77;;;;;;;13.73;34.86;100185.64;1722816;83;21110;-79
2021/04/04 01:27:42;;;;;;;30.88;18.70;;;;;;;13.71;35.17;100186.64;1749909;80;21183;-79
2021/04/04 01:30:14;;;;;;;36.40;19.42;;;;;;;13.70;35.29;100184.98;1723562;82;21117;-79
2021/04/04 01:32:42;;;;;;;37.30;19.67;;;;;;;13.69;35.19;100183.31;1746450;80;21159;-79
2021/04/04 01:35:12;;;;;;;32.20;18.65;;;;;;;13.68;35.07;100184.34;1746998;80;21577;-79
2021/04/04 01:37:40;;;;;;;30.40;18.73;;;;;;;13.69;35.39;100187.86;1739863;80;21190;-81
2021/04/04 01:40:11;;;;;;;30.48;18.15;;;;;;;13.69;35.47;100194.08;1748186;80;21153;-81
2021/04/04 01:42:39;;;;;;;34.70;19.92;;;;;;;13.70;35.53;100194.39;1726000;82;21216;-77
2021/04/04 01:45:08;;;;;;;33.13;19.57;;;;;;;13.69;35.53;100194.08;1719981;82;21157;-78
2021/04/04 01:47:37;;;;;;;31.68;18.62;;;;;;;13.68;35.54;100203.17;1723726;82;21161;-82
2021/04/04 01:50:07;;;;;;;30.92;18.48;;;;;;;13.67;35.68;100194.78;1678026;84;21105;-81
2021/04/04 01:52:35;;;;;;;42.13;20.92;;;;;;;13.68;35.67;100195.62;1708811;83;21221;-80
2021/04/04 01:55:04;;;;;;;32.50;20.72;;;;;;;13.68;35.56;100188.89;1725082;82;21224;-80
2021/04/04 01:57:33;;;;;;;33.85;19.70;;;;;;;13.68;35.43;100191.06;1729660;80;21729;-79
2021/04/04 02:00:01;;;;;;;;;;;;;;;13.66;35.31;100191.74;1759185;80;21215;-78
2021/04/04 02:02:30;;;;;;;29.55;17.85;;;;;;;13.63;35.58;100201.55;1731776;80;20286;-79
2021/04/04 02:04:58;;;;;;;28.65;18.15;;;;;;;13.59;35.77;100205.63;1724204;83;21989;-80
2021/04/04 02:07:25;;;;;;;29.95;18.42;;;;;;;13.57;35.93;100210.34;1723998;83;21190;-79
2021/04/04 02:09:52;;;;;;;31.07;18.10;;;;;;;13.55;36.24;100208.36;1739176;80;21649;-80
2021/04/04 02:12:22;;;;;;;28.57;17.65;;;;;;;13.53;36.76;100208.20;1710331;81;21229;-78
2021/04/04 02:14:49;;;;;;;28.27;17.98;;;;;;;13.50;37.12;100208.59;1713551;83;21724;-79
2021/04/04 02:17:17;;;;;;;31.77;18.37;;;;;;;13.48;37.45;100205.23;1697903;83;21205;-80
2021/04/04 02:19:45;;;;;;;35.83;19.05;;;;;;;13.45;37.78;100209.14;1750080;82;21464;-79
2021/04/04 02:22:12;;;;;;;34.90;19.42;;;;;;;13.43;37.89;100211.16;1749737;82;21177;-81
2021/04/04 02:24:39;;;;;;;30.90;18.82;;;;;;;13.41;38.24;100210.52;1749907;82;21190;-80
2021/04/04 02:27:07;;;;;;;29.80;18.25;;;;;;;13.39;38.41;100207.16;1749869;82;21189;-81
2021/04/04 02:29:35;;;;;;;31.33;19.70;;;;;;;13.39;38.41;100212.03;1750904;82;21069;-80
2021/04/04 02:32:05;;;;;;;34.80;18.85;;;;;;;13.39;38.34;100215.23;1725984;82;21161;-78
2021/04/04 02:34:37;;;;;;;33.10;20.12;;;;;;;13.38;38.23;100219.78;1706517;82;21149;-81
2021/04/04 02:37:04;;;;;;;32.67;18.57;;;;;;;13.38;38.10;100224.33;1751286;82;21038;-80
2021/04/04 02:39:47;;;;;;;33.45;18.55;;;;;;;13.38;38.06;100224.33;1751195;82;21167;-78
2021/04/04 02:42:19;;;;;;;32.38;19.50;;;;;;;13.36;38.16;100218.30;1749828;82;21102;-79
2021/04/04 02:44:48;;;;;;;34.78;19.70;;;;;;;13.34;38.19;100221.67;1751146;82;21193;-78
2021/04/04 02:47:16;;;;;;;29.90;17.52;;;;;;;13.30;38.28;100226.56;1751205;82;21086;-79
2021/04/04 02:49:45;;;;;;;32.73;19.65;;;;;;;13.26;38.64;100219.87;1726320;82;21497;-79
2021/04/04 02:52:13;;;;;;;33.70;20.70;;;;;;;13.27;38.85;100222.09;1751007;82;21489;-81
2021/04/04 02:54:40;;;;;;;;;;;;;;;13.30;38.68;100230.61;1753676;82;21133;-80
2021/04/04 02:57:07;;;;;;;34.13;19.45;;;;;;;13.31;38.37;100233.65;1751287;81;20216;-78
2021/04/04 02:59:49;;;;;;;43.78;23.32;;;;;;;13.24;38.11;100231.85;1750986;82;21549;-78
2021/04/04 03:02:19;;;;;;;48.83;27.20;;;;;;;13.09;38.08;100242.02;1751215;82;21064;-80
2021/04/04 03:04:48;;;;;;;48.80;27.90;;;;;;;13.01;38.03;100241.24;1752179;82;21098;-79
2021/04/04 03:07:22;;;;;;;56.40;29.40;;;;;;;13.01;38.07;100237.21;1753523;82;21071;-79
2021/04/04 03:09:51;;;;;;;53.38;30.45;;;;;;;13.01;37.75;100240.73;1751726;82;21039;-78
2021/04/04 03:12:20;;;;;;;51.63;28.90;;;;;;;13.02;37.85;100238.36;1751168;82;21409;-79
2021/04/04 03:14:49;;;;;;;53.20;29.42;;;;;;;13.05;37.70;100241.22;1751227;82;21038;-80
2021/04/04 03:17:17;;;;;;;55.75;30.62;;;;;;;13.06;37.70;100246.41;1726216;82;21090;-79
2021/04/04 03:19:45;;;;;;;46.63;28.40;;;;;;;13.07;37.67;100244.03;1750858;82;21102;-81
2021/04/04 03:22:13;;;;;;;48.30;28.35;;;;;;;13.08;37.37;100244.39;1751064;82;21114;-79
2021/04/04 03:24:42;;;;;;;48.70;28.65;;;;;;;13.07;37.25;100241.34;1751035;82;21585;-80
2021/04/04 03:27:09;;;;;;;51.88;26.93;;;;;;;13.08;37.54;100245.73;1726030;82;21142;-79
2021/04/04 03:29:37;;;;;;;49.93;28.62;;;;;;;13.09;37.59;100250.09;1750873;82;21636;-78
2021/04/04 03:32:05;;;;;;;47.05;27.05;;;;;;;13.10;37.70;100257.14;1700731;82;21172;-80
2021/04/04 03:34:32;;;;;;;49.63;28.87;;;;;;;13.10;37.78;100250.41;1724821;82;21209;-77
2021/04/04 03:36:59;;;;;;;;;;;;;;;13.15;37.66;100256.08;1706361;81;21324;-78
2021/04/04 03:39:26;;;;;;;46.18;25.72;;;;;;;13.17;37.53;100252.73;1731932;81;20291;-78
2021/04/04 03:41:55;;;;;;;51.77;28.17;;;;;;;13.13;37.43;100254.09;1707564;81;21198;-80
2021/04/04 03:44:27;;;;;;;55.00;28.07;;;;;;;13.06;37.32;100248.27;1759516;81;21194;-80
2021/04/04 03:46:55;;;;;;;51.70;28.98;;;;;;;12.97;37.10;100250.68;1732450;81;21760;-80
2021/04/04 03:49:25;;;;;;;58.48;30.70;;;;;;;12.90;37.12;100247.37;1759295;81;21728;-79
2021/04/04 03:51:55;;;;;;;50.00;30.20;;;;;;;12.88;37.39;100253.93;1759577;81;21207;-78
2021/04/04 03:54:24;;;;;;;48.05;27.45;;;;;;;12.92;37.60;100253.39;1760435;81;21155;-79
2021/04/04 03:56:52;;;;;;;50.35;28.47;;;;;;;12.94;37.62;100255.89;1761110;81;21143;-79
2021/04/04 03:59:21;;;;;;;49.98;27.98;;;;;;;13.01;37.62;100252.00;1761066;81;21191;-77
2021/04/04 04:01:50;;;;;;;51.50;31.15;;;;;;;13.05;37.59;100254.16;1760957;81;21178;-78
2021/04/04 04:04:18;;;;;;;58.33;34.43;;;;;;;13.03;37.61;100254.82;1761016;81;21072;-78
2021/04/04 04:06:46;;;;;;;56.85;30.72;;;;;;;13.06;37.72;100250.44;1733890;81;21535;-80
2021/04/04 04:09:16;;;;;;;53.42;32.30;;;;;;;13.08;37.58;100258.31;1761034;81;21107;-80
2021/04/04 04:11:45;;;;;;;55.10;31.85;;;;;;;13.07;37.50;100260.69;1760984;81;21135;-78
2021/04/04 04:14:16;;;;;;;52.48;29.82;;;;;;;13.07;37.60;100261.52;1760816;81;21716;-79
2021/04/04 04:16:44;;;;;;;50.83;30.02;;;;;;;13.08;37.55;100259.18;1760768;81;21095;-79
2021/04/04 04:19:11;;;;;;;;;;;;;;;13.08;37.76;100255.15;1762928;81;21186;-78
2021/04/04 04:21:40;;;;;;;58.17;31.62;;;;;;;13.15;37.90;100257.94;1760073;81;20244;-78
2021/04/04 04:24:13;;;;;;;54.98;29.70;;;;;;;13.17;37.96;100260.80;1760816;81;21083;-78
2021/04/04 04:26:43;;;;;;;64.55;30.80;;;;;;;13.18;37.76;100259.77;1760613;81;21168;-81
2021/04/04 04:29:11;;;;;;;56.92;30.32;;;;;;;13.21;37.86;100259.39;1761047;81;21139;-79
2021/04/04 04:31:44;;;;;;;54.70;29.98;;;;;;;13.21;37.88;100255.35;1761402;81;21198;-80
2021/04/04 04:34:11;;;;;;;54.20;30.35;;;;;;;13.27;37.54;100257.05;1733268;81;21143;-79
2021/04/04 04:36:39;;;;;;;56.35;28.98;;;;;;;13.30;37.14;100261.54;1761055;81;21187;-81
2021/04/04 04:39:10;;;;;;;48.75;26.52;;;;;;;13.30;36.80;100267.44;1760890;81;21099;-80
2021/04/04 04:41:43;;;;;;;56.68;30.05;;;;;;;13.32;36.42;100265.41;1761035;81;21075;-81
2021/04/04 04:44:10;;;;;;;53.35;30.08;;;;;;;13.35;36.51;100270.41;1761020;81;21142;-80
2021/04/04 04:46:37;;;;;;;48.13;29.48;;;;;;;13.37;36.39;100266.53;1733509;81;21542;-80
2021/04/04 04:49:06;;;;;;;46.63;25.57;;;;;;;13.41;36.54;100277.78;1760866;81;21079;-80
2021/04/04 04:51:34;;;;;;;42.40;25.37;;;;;;;13.38;36.56;100279.48;1760403;81;21194;-79
2021/04/04 04:54:03;;;;;;;46.02;26.95;;;;;;;13.36;36.21;100274.80;1760380;81;21122;-80
2021/04/04 04:56:32;;;;;;;61.35;31.62;;;;;;;13.32;36.22;100283.73;1759596;81;21162;-80
2021/04/04 04:59:00;;;;;;;94.55;50.38;;;;;;;13.31;36.32;100275.34;1755881;80;21799;-79
2021/04/04 05:01:27;;;;;;;81.92;46.88;;;;;;;13.31;36.84;100278.55;1730891;81;21198;-79
2021/04/04 05:03:54;;;;;;;68.30;36.08;;;;;;;13.29;36.63;100280.05;1759213;81;21211;-79
2021/04/04 05:06:24;;;;;;;54.40;27.55;;;;;;;13.21;36.79;100284.94;1730832;82;21161;-78
2021/04/04 05:08:52;;;;;;;42.03;24.25;;;;;;;13.16;36.99;100280.61;1753667;81;21214;-78
2021/04/04 05:11:18;;;;;;;;;;;;;;;13.15;37.26;100282.98;1703286;81;21172;-77
2021/04/04 05:13:45;;;;;;;46.40;22.00;;;;;;;13.14;37.42;100279.97;1753988;81;20287;-78
2021/04/04 05:16:14;;;;;;;36.55;21.27;;;;;;;13.15;37.58;100280.29;1726156;81;21575;-78
2021/04/04 05:18:49;;;;;;;37.20;19.87;;;;;;;13.20;37.44;100286.47;1730825;82;21197;-79
2021/04/04 05:21:26;;;;;;;33.28;19.10;;;;;;;13.30;37.57;100280.88;1754898;81;21206;-77
2021/04/04 05:23:58;;;;;;;33.15;19.80;;;;;;;13.43;37.54;100283.80;1753999;81;21511;-79
2021/04/04 05:26:38;;;;;;;38.48;20.97;;;;;;;13.55;37.59;100286.91;1753368;81;21239;-78
2021/04/04 05:29:12;;;;;;;32.38;18.77;;;;;;;13.68;37.59;100285.78;1753877;81;21194;-78
2021/04/04 05:31:53;;;;;;;30.77;17.82;;;;;;;13.55;38.08;100282.36;1754296;81;21674;-78
2021/04/04 05:34:26;;;;;;;28.07;15.13;;;;;;;13.88;37.80;100290.12;1736898;81;21218;-79
2021/04/04 05:36:57;;;;;;;25.08;12.63;;;;;;;14.02;37.83;100293.85;1723878;83;21673;-78
2021/04/04 05:39:26;;;;;;;15.75;8.63;;;;;;;14.09;37.71;100283.51;1724384;83;21198;-79
2021/04/04 05:42:00;;;;;;;9.93;6.12;;;;;;;14.20;37.50;100288.42;1723650;83;21214;-79
2021/04/04 05:44:51;;;;;;;11.18;6.10;;;;;;;14.32;37.25;100283.93;1841813;77;22736;-80
2021/04/04 05:47:39;;;;;;;11.93;5.53;;;;;;;14.36;37.15;100283.88;1810551;78;21654;-77
2021/04/04 05:50:09;;;;;;;14.98;5.87;;;;;;;14.41;37.02;100285.50;1811097;79;21192;-79
2021/04/04 05:52:42;;;;;;;10.40;5.50;;;;;;;14.43;37.01;100290.18;1763571;80;21199;-80
2021/04/04 05:55:31;;;;;;;12.93;6.12;;;;;;;14.47;36.98;100286.09;1781534;79;21207;-79
2021/04/04 05:58:07;;;;;;;12.82;6.60;;;;;;;14.44;36.96;100290.49;1793052;78;21178;-81
2021/04/04 06:00:36;;;;;;;11.53;6.58;;;;;;;14.40;37.10;100293.27;1792587;78;21666;-79
2021/04/04 06:03:32;;;;;;;11.30;5.90;;;;;;;14.37;37.32;100297.67;1743661;81;21647;-80
2021/04/04 06:06:07;;;;;;;14.80;7.37;;;;;;;14.38;37.36;100300.69;1737382;81;21195;-78
2021/04/04 06:09:16;;;;;;;13.70;7.35;;;;;;;14.41;37.58;100297.11;1764551;80;21216;-77
2021/04/04 06:12:18;;;;;;;12.82;7.03;;;;;;;14.47;37.66;100299.56;1798737;79;21082;-79
2021/04/04 06:15:05;;;;;;;11.22;6.05;;;;;;;14.55;37.73;100302.70;1787671;77;21141;-80
2021/04/04 06:17:39;;;;;;;10.05;5.60;;;;;;;14.70;37.67;100311.59;1793734;78;21191;-82
2021/04/04 06:20:42;;;;;;;9.90;5.35;;;;;;;14.79;37.48;100310.98;1793745;80;21084;-79
2021/04/04 06:23:51;;;;;;;22.48;10.80;;;;;;;14.85;37.29;100317.81;1760955;80;21197;-79
2021/04/04 06:26:39;;;;;;;10.90;6.22;;;;;;;14.95;37.26;100312.12;1812838;79;21192;-80
2021/04/04 06:29:20;;;;;;;9.20;5.62;;;;;;;15.02;37.22;100310.31;1817393;78;21678;-79
2021/04/04 06:32:11;;;;;;;11.45;5.87;;;;;;;15.09;37.13;100306.36;1817196;78;21473;-80
2021/04/04 06:34:51;;;;;;;11.43;6.47;;;;;;;15.13;37.28;100309.00;1816609;78;21179;-81
2021/04/04 06:38:01;;;;;;;8.70;5.47;;;;;;;15.22;37.31;100310.02;1817349;78;21679;-79
2021/04/04 06:40:51;;;;;;;7.75;4.83;;;;;;;15.26;37.27;100306.92;1808887;79;21148;-79
2021/04/04 06:43:42;;;;;;;10.50;5.03;;;;;;;15.34;37.23;100305.45;1774184;79;21163;-80
2021/04/04 06:46:49;;;;;;;11.53;5.60;;;;;;;15.40;37.10;100311.45;1786585;77;21246;-79
2021/04/04 06:49:49;;;;;;;7.90;5.28;;;;;;;15.41;37.30;100311.77;1798850;77;21638;-78
2021/04/04 06:52:34;;;;;;;11.75;5.75;;;;;;;15.50;37.03;100313.82;1783713;80;22302;-79
2021/04/04 06:55:17;;;;;;;12.70;5.40;;;;;;;15.61;37.03;100312.77;1783208;80;21160;-78
2021/04/04 06:57:53;;;;;;;8.28;5.03;;;;;;;15.71;36.93;100310.62;1783588;80;21164;-78
2021/04/04 07:00:48;;;;;;;8.55;5.70;;;;;;;15.87;36.50;100312.19;1783208;80;21163;-78
2021/04/04 07:03:20;;;;;;;8.83;5.50;;;;;;;16.04;35.93;100314.08;1782639;80;21179;-79
2021/04/04 07:06:03;;;;;;;10.43;5.45;;;;;;;16.22;35.60;100318.46;1795196;79;21195;-78
2021/04/04 07:08:45;;;;;;;12.85;7.42;;;;;;;16.39;35.48;100315.42;1789537;79;21156;-79
2021/04/04 07:11:23;;;;;;;14.10;7.87;;;;;;;16.62;35.37;100316.47;1783113;80;21090;-78
2021/04/04 07:14:29;;;;;;;17.55;7.87;;;;;;;16.81;35.07;100316.30;1784193;80;20997;-78
2021/04/04 07:17:38;;;;;;;15.88;7.72;;;;;;;17.00;34.86;100315.52;1783225;80;21199;-78
2021/04/04 07:20:34;;;;;;;13.85;7.75;;;;;;;17.24;34.64;100316.83;1783457;79;21700;-79
2021/04/04 07:23:24;;;;;;;15.10;7.47;;;;;;;17.52;34.08;100318.00;1783731;79;21379;-77
2021/04/04 07:26:36;;;;;;;13.18;8.70;;;;;;;17.78;33.73;100317.75;1784810;79;21491;-79
2021/04/04 07:29:31;;;;;;;13.83;7.37;;;;;;;18.04;32.85;100316.91;1784249;80;21211;-79
2021/04/04 07:32:23;;;;;;;14.75;7.40;;;;;;;18.27;32.47;100315.92;1784287;79;21187;-79
2021/04/04 07:35:16;;;;;;;8.58;5.92;;;;;;;18.48;31.25;100314.80;1783852;80;21180;-79
2021/04/04 07:37:54;;;;;;;10.18;6.17;;;;;;;18.69;29.34;100320.52;1756713;80;21148;-79
2021/04/04 07:40:32;;;;;;;15.75;6.72;;;;;;;18.89;28.24;100314.99;1754446;79;21190;-78
2021/04/04 07:43:07;;;;;;;9.73;5.97;;;;;;;19.04;27.79;100322.88;1791707;79;21167;-78
2021/04/04 07:45:46;;;;;;;15.78;5.60;;;;;;;19.17;27.39;100324.99;1785819;79;21188;-77
2021/04/04 07:48:25;;;;;;;;;;;;;;;19.31;27.00;100327.10;1808554;77;21156;-78
2021/04/04 07:51:06;;;;;;;9.38;5.22;;;;;;;19.42;26.30;100318.23;1808618;78;20274;-80
2021/04/04 07:54:07;;;;;;;7.50;4.47;;;;;;;19.52;25.85;100324.54;1804597;79;21211;-80
2021/04/04 07:56:43;;;;;;;10.32;5.08;;;;;;;19.58;25.10;100316.89;1814211;79;21168;-79
2021/04/04 07:59:23;;;;;;;6.58;4.08;;;;;;;19.64;24.81;100318.74;1814749;79;21195;-77
2021/04/04 08:02:11;;;;;;;8.78;5.00;;;;;;;19.69;24.70;100321.63;1792698;79;21157;-78
2021/04/04 08:05:08;;;;;;;5.45;4.37;;;;;;;19.76;24.18;100314.27;1805110;79;21172;-80
2021/04/04 08:07:47;;;;;;;8.45;5.20;;;;;;;19.84;24.02;100322.64;1806741;79;21711;-78
2021/04/04 08:10:38;;;;;;;6.62;4.47;;;;;;;19.91;23.82;100315.80;1799423;77;21180;-76
2021/04/04 08:13:38;;;;;;;12.28;6.55;;;;;;;19.91;23.50;100312.56;1798224;79;21132;-78
2021/04/04 08:16:13;;;;;;;7.72;5.00;;;;;;;19.88;23.61;100314.35;1786330;79;21195;-77
2021/04/04 08:18:40;;;;;;;8.08;5.45;;;;;;;19.82;23.81;100312.53;1778075;79;21218;-77
2021/04/04 08:21:10;;;;;;;;;;;;;;;19.75;23.75;100309.86;1796536;78;21168;-77
2021/04/04 08:23:56;;;;;;;16.05;8.25;;;;;;;19.74;23.97;100311.45;1815482;77;20684;-77
2021/04/04 08:26:35;;;;;;;15.50;9.28;;;;;;;19.69;24.73;100313.47;1794516;78;21128;-76
2021/04/04 08:29:07;;;;;;;16.23;9.90;;;;;;;19.66;25.38;100313.91;1802782;78;21157;-77
2021/04/04 08:31:50;;;;;;;16.42;9.65;;;;;;;19.62;25.60;100312.71;1825354;77;20948;-79
2021/04/04 08:34:40;;;;;;;11.60;7.08;;;;;;;19.58;25.64;100313.34;1821856;78;21274;-80
2021/04/04 08:37:37;;;;;;;12.28;7.00;;;;;;;19.52;25.00;100312.31;1821788;78;21177;-79
2021/04/04 08:40:11;;;;;;;9.58;6.40;;;;;;;19.44;24.51;100305.28;1824720;78;20983;-79
2021/04/04 08:42:38;;;;;;;6.67;5.03;;;;;;;19.36;24.41;100315.58;1780553;78;21149;-79
2021/04/04 08:45:15;;;;;;;8.10;5.12;;;;;;;19.29;24.06;100312.06;1814264;77;21232;-78
2021/04/04 08:47:45;;;;;;;5.85;4.35;;;;;;;19.25;23.77;100317.09;1840570;77;21450;-79
2021/04/04 08:50:18;;;;;;;6.10;4.10;;;;;;;19.23;23.35;100312.42;1796242;77;21189;-80
2021/04/04 08:52:50;;;;;;;5.30;3.83;;;;;;;19.22;23.33;100310.23;1761364;80;21125;-78
2021/04/04 08:55:23;;;;;;;5.83;3.67;;;;;;;19.24;23.28;100314.08;1791792;79;21321;-81
2021/04/04 08:57:51;;;;;;;8.43;4.60;;;;;;;19.26;23.31;100308.75;1774872;80;21105;-80
2021/04/04 09:00:21;;;;;;;9.80;5.00;;;;;;;19.26;23.41;100307.39;1837620;77;21184;-81
2021/04/04 09:02:59;;;;;;;8.13;4.55;;;;;;;19.28;23.61;100300.38;1785790;77;21196;-79
2021/04/04 09:05:34;;;;;;;6.30;4.62;;;;;;;19.33;23.36;100302.43;1783199;80;21524;-79
2021/04/04 09:08:04;;;;;;;6.92;4.33;;;;;;;19.31;23.39;100305.91;1783430;79;21305;-78
2021/04/04 09:10:38;;;;;;;6.67;4.65;;;;;;;19.25;23.52;100296.73;1783911;80;21077;-81
2021/04/04 09:13:15;;;;;;;7.50;4.78;;;;;;;19.17;23.47;100299.20;1756523;79;21202;-78
2021/04/04 09:15:57;;;;;;;6.25;4.65;;;;;;;19.07;23.73;100293.39;1732051;80;21135;-77
2021/04/04 09:18:26;;;;;;;9.18;4.67;;;;;;;19.04;23.94;100291.66;1788605;79;21085;-78
2021/04/04 09:21:06;;;;;;;8.40;4.37;;;;;;;19.00;23.96;100294.80;1797346;79;21097;-78
2021/04/04 09:23:33;;;;;;;7.12;5.20;;;;;;;18.99;24.10;100290.95;1794082;79;21199;-78
2021/04/04 09:26:05;;;;;;;6.42;4.83;;;;;;;19.02;24.14;100295.92;1815202;79;21266;-79
2021/04/04 09:28:35;;;;;;;9.53;4.65;;;;;;;18.84;23.92;100290.39;1786093;79;21187;-79
2021/04/04 09:31:08;;;;;;;9.28;5.00;;;;;;;18.88;23.82;100287.02;1760088;79;21207;-79
2021/04/04 09:33:37;;;;;;;9.40;4.78;;;;;;;18.90;23.96;100285.47;1780882;80;21203;-81
2021/04/04 09:36:08;;;;;;;8.53;5.08;;;;;;;18.93;24.06;100286.38;1782882;79;21553;-81
2021/04/04 09:38:42;;;;;;;8.15;5.62;;;;;;;18.94;23.98;100287.53;1783234;79;21757;-78
2021/04/04 09:41:10;;;;;;;7.22;4.97;;;;;;;18.93;23.63;100283.12;1748100;80;21409;-79
2021/04/04 09:43:42;;;;;;;7.35;5.05;;;;;;;18.88;23.72;100278.05;1793439;79;21197;-79
2021/04/04 09:46:11;;;;;;;9.35;4.78;;;;;;;18.86;23.65;100274.73;1786859;79;21187;-81
2021/04/04 09:48:40;;;;;;;9.50;4.60;;;;;;;18.83;23.96;100275.16;1798467;79;21172;-80
2021/04/04 09:51:14;;;;;;;9.93;4.70;;;;;;;18.78;23.23;100270.38;1780678;77;21215;-78
2021/04/04 09:53:49;;;;;;;8.10;4.30;;;;;;;18.74;23.08;100269.98;1804252;77;21679;-77
2021/04/04 09:56:22;;;;;;;4.08;3.37;;;;;;;18.66;22.44;100266.11;1789084;79;21009;-77
2021/04/04 09:58:49;;;;;;;5.65;4.00;;;;;;;18.53;22.12;100266.20;1778363;78;21128;-79
2021/04/04 10:01:23;;;;;;;;;;;;;;;18.40;22.03;100264.89;1820997;77;21563;-79
2021/04/04 10:04:07;;;;;;;6.05;3.60;;;;;;;18.30;22.06;100261.77;1785645;79;20203;-77
2021/04/04 10:06:36;;;;;;;5.25;3.02;;;;;;;18.19;22.17;100262.75;1812169;79;21205;-78
2021/04/04 10:09:12;;;;;;;7.33;3.20;;;;;;;18.12;21.97;100267.37;1800049;79;21180;-78
2021/04/04 10:11:41;;;;;;;5.15;2.77;;;;;;;18.02;21.89;100268.31;1782768;80;21710;-79
2021/04/04 10:14:16;;;;;;;3.75;3.00;;;;;;;17.92;21.81;100261.14;1756308;80;21231;-78
2021/04/04 10:16:44;;;;;;;6.92;3.47;;;;;;;17.84;21.99;100263.55;1782668;80;21303;-78
2021/04/04 10:19:16;;;;;;;5.30;3.37;;;;;;;17.80;22.35;100260.11;1754381;80;21183;-77
2021/04/04 10:21:56;;;;;;;5.97;2.70;;;;;;;17.74;22.40;100265.33;1766118;79;21277;-78
2021/04/04 10:24:36;;;;;;;3.65;2.45;;;;;;;17.72;22.35;100268.75;1788760;77;21551;-80
2021/04/04 10:27:27;;;;;;;5.50;3.02;;;;;;;17.67;22.22;100271.26;1783326;79;21116;-78
2021/04/04 10:30:17;;;;;;;4.90;2.98;;;;;;;17.63;22.07;100265.11;1795296;77;21112;-81
2021/04/04 10:32:48;;;;;;;3.52;2.90;;;;;;;17.58;22.09;100266.27;1816079;79;21108;-79
2021/04/04 10:35:41;;;;;;;3.58;2.70;;;;;;;17.52;22.07;100268.43;1800705;79;21215;-80
2021/04/04 10:38:20;;;;;;;4.67;2.35;;;;;;;17.48;22.27;100264.77;1764443;79;21199;-79
2021/04/04 10:40:56;;;;;;;4.37;2.83;;;;;;;17.46;22.31;100268.22;1783482;79;21116;-81
2021/04/04 10:43:45;;;;;;;8.33;4.05;;;;;;;17.41;22.35;100266.66;1785923;79;21120;-79
2021/04/04 10:46:16;;;;;;;8.25;4.75;;;;;;;17.37;23.12;100274.05;1796688;79;21420;-79
2021/04/04 10:48:47;;;;;;;9.35;5.35;;;;;;;17.26;24.27;100271.45;1782927;79;21590;-78
2021/04/04 10:51:16;;;;;;;7.28;4.78;;;;;;;17.22;24.19;100276.44;1768476;79;21104;-77
2021/04/04 10:53:43;;;;;;;8.95;5.35;;;;;;;17.15;24.22;100270.16;1799672;79;21116;-78
2021/04/04 10:56:12;;;;;;;7.20;5.20;;;;;;;17.16;23.68;100270.47;1783568;80;21096;-78
2021/04/04 10:58:42;;;;;;;10.05;5.30;;;;;;;17.15;23.86;100271.52;1790307;77;21174;-78
2021/04/04 11:01:12;;;;;;;8.18;5.67;;;;;;;17.08;24.45;100263.92;1796216;79;21177;-78
2021/04/04 11:03:40;;;;;;;9.60;5.72;;;;;;;17.06;25.28;100263.80;1755552;80;21171;-80
2021/04/04 11:06:09;;;;;;;9.03;5.62;;;;;;;17.04;26.84;100268.60;1784346;79;21211;-78
2021/04/04 11:08:37;;;;;;;10.48;6.10;;;;;;;17.02;27.68;100262.55;1811923;79;21188;-78
2021/04/04 11:11:05;;;;;;;14.85;8.20;;;;;;;16.97;28.44;100269.92;1765133;77;21557;-79
2021/04/04 11:13:33;;;;;;;12.10;7.62;;;;;;;16.87;28.94;100272.19;1786200;79;21199;-78
2021/04/04 11:16:07;;;;;;;15.85;7.47;;;;;;;16.76;29.39;100278.17;1753925;80;21547;-78
2021/04/04 11:18:46;;;;;;;11.33;7.00;;;;;;;16.69;29.74;100274.91;1787453;79;21183;-79
2021/04/04 11:21:20;;;;;;;16.32;7.25;;;;;;;16.65;30.13;100273.64;1788097;79;21136;-79
2021/04/04 11:23:50;;;;;;;14.45;6.67;;;;;;;16.68;30.34;100275.13;1784230;79;21481;-79
2021/04/04 11:26:29;;;;;;;11.35;6.70;;;;;;;16.72;30.47;100281.30;1793472;79;21204;-76
2021/04/04 11:29:12;;;;;;;11.78;6.78;;;;;;;16.76;30.45;100270.92;1794093;79;21438;-80
2021/04/04 11:31:49;;;;;;;7.60;5.20;;;;;;;16.81;30.51;100279.26;1797857;79;21104;-78
2021/04/04 11:34:38;;;;;;;5.92;4.42;;;;;;;16.81;29.28;100276.55;1796341;79;21092;-80
2021/04/04 11:37:19;;;;;;;6.75;3.98;;;;;;;16.82;28.37;100276.03;1801859;79;21272;-77
2021/04/04 11:40:15;;;;;;;11.73;4.70;;;;;;;16.84;27.81;100271.23;1758474;79;21184;-79
2021/04/04 11:42:45;;;;;;;5.97;4.33;;;;;;;16.83;27.38;100262.29;1777680;79;21167;-80
2021/04/04 11:45:13;;;;;;;7.83;4.83;;;;;;;16.87;26.97;100270.84;1822744;78;21181;-79
2021/04/04 11:47:41;;;;;;;11.15;4.60;;;;;;;16.89;26.74;100268.75;1804603;79;21196;-79
2021/04/04 11:50:24;;;;;;;6.03;4.15;;;;;;;16.88;27.01;100268.44;1807747;78;21710;-79
2021/04/04 11:52:53;;;;;;;9.90;5.33;;;;;;;16.87;26.99;100264.08;1809041;79;21251;-83
2021/04/04 11:55:20;;;;;;;6.67;5.08;;;;;;;16.90;27.36;100267.22;1816348;78;21188;-78